Time;durP1;ratioP1;P1;durP2;ratioP2;P2;SDS_P1;SDS_P2;PMS_P1;PMS_P2;Temp;Humidity;BMP_temperature;BMP_pressure;BME280_temperature;BME280_humidity;BME280_pressure;Samples;Min_cycle;Max_cycle;Signal;HPM_P1;HPM_P2
2022/05/19 00:03:30;;;;;;;0.00;0.00;;;;;;;;;;5035549;28;20088;-86
2022/05/19 00:05:58;;;;;;;0.10;0.10;;;;;;;;;;5018893;28;20090;-86
2022/05/19 00:08:24;;;;;;;0.65;0.65;;;;;;;;;;5019125;28;20040;-86
2022/05/19 00:10:51;;;;;;;0.15;0.15;;;;;;;;;;5003077;28;20071;-85
2022/05/19 00:13:18;;;;;;;0.10;0.10;;;;;;;;;;5035613;28;20128;-86
2022/05/19 00:15:44;;;;;;;0.00;0.00;;;;;;;;;;5035674;28;20478;-87
2022/05/19 00:18:10;;;;;;;0.10;0.10;;;;;;;;;;5019173;28;20517;-86
2022/05/19 00:20:36;;;;;;;0.10;0.10;;;;;;;;;;5019143;28;20127;-86
2022/05/19 00:23:02;;;;;;;0.10;0.10;;;;;;;;;;5018736;28;20122;-87
2022/05/19 00:25:30;;;;;;;0.10;0.10;;;;;;;;;;5018878;28;20429;-87
2022/05/19 00:27:56;;;;;;;0.00;0.00;;;;;;;;;;5018987;28;20040;-88
2022/05/19 00:30:22;;;;;;;0.10;0.10;;;;;;;;;;5035574;28;20402;-87
2022/05/19 00:32:48;;;;;;;0.00;0.00;;;;;;;;;;5018766;28;20049;-87
2022/05/19 00:35:14;;;;;;;0.00;0.00;;;;;;;;;;5018787;28;20041;-87
2022/05/19 00:37:40;;;;;;;0.00;0.00;;;;;;;;;;5018948;28;20052;-87
2022/05/19 00:40:07;;;;;;;0.00;0.00;;;;;;;;;;5018785;28;20037;-88
2022/05/19 00:42:45;;;;;;;3.42;1.17;;;;;;;;;;5019104;28;20040;-88
2022/05/19 00:45:12;;;;;;;0.05;0.05;;;;;;;;;;5018837;28;20045;-87
2022/05/19 00:47:53;;;;;;;0.05;0.05;;;;;;;;;;5018194;28;20072;-86
2022/05/19 00:50:24;;;;;;;0.10;0.10;;;;;;;;;;5018438;28;20041;-87
2022/05/19 00:52:52;;;;;;;0.10;0.10;;;;;;;;;;5018506;28;20041;-87
2022/05/19 00:55:20;;;;;;;0.10;0.10;;;;;;;;;;5018751;28;20036;-88
2022/05/19 00:57:49;;;;;;;0.00;0.00;;;;;;;;;;5018541;28;20068;-87
2022/05/19 01:00:18;;;;;;;0.03;0.03;;;;;;;;;;5018450;28;20041;-87
2022/05/19 01:02:56;;;;;;;0.10;0.10;;;;;;;;;;5018423;28;20398;-86
2022/05/19 01:05:34;;;;;;;0.10;0.10;;;;;;;;;;5018434;28;20041;-88
2022/05/19 01:08:08;;;;;;;0.00;0.00;;;;;;;;;;5018638;28;20509;-87
2022/05/19 01:10:34;;;;;;;0.05;0.05;;;;;;;;;;5018400;28;20410;-86
2022/05/19 01:13:01;;;;;;;0.10;0.10;;;;;;;;;;5018423;28;20397;-87
2022/05/19 01:15:27;;;;;;;0.30;0.30;;;;;;;;;;5018149;28;20120;-87
2022/05/19 01:17:53;;;;;;;0.00;0.00;;;;;;;;;;5018681;28;20045;-86
2022/05/19 01:20:22;;;;;;;0.00;0.00;;;;;;;;;;5034913;28;20037;-86
2022/05/19 01:23:00;;;;;;;0.05;0.05;;;;;;;;;;5017975;28;20041;-86
2022/05/19 01:25:29;;;;;;;0.00;0.00;;;;;;;;;;5034564;28;20466;-87
2022/05/19 01:27:55;;;;;;;0.10;0.10;;;;;;;;;;5018056;28;20037;-86
2022/05/19 01:30:21;;;;;;;0.10;0.10;;;;;;;;;;5018133;28;20032;-87
2022/05/19 01:32:47;;;;;;;0.00;0.00;;;;;;;;;;5018174;28;20045;-87
2022/05/19 01:35:13;;;;;;;0.10;0.10;;;;;;;;;;5018477;28;20541;-87
2022/05/19 01:37:39;;;;;;;0.00;0.00;;;;;;;;;;5018024;28;20095;-87
2022/05/19 01:40:06;;;;;;;0.00;0.00;;;;;;;;;;5018462;28;20045;-84
2022/05/19 01:42:50;;;;;;;0.00;0.00;;;;;;;;;;5021519;28;20561;-87
2022/05/19 01:45:19;;;;;;;0.10;0.10;;;;;;;;;;5021327;28;20037;-87
2022/05/19 01:47:54;;;;;;;0.00;0.00;;;;;;;;;;5021266;28;20047;-87
2022/05/19 01:50:20;;;;;;;;;;;;;;;;;;5021591;28;20075;-86
2022/05/19 01:52:54;;;;;;;0.20;0.20;;;;;;;;;;5021553;28;20007;-86
2022/05/19 01:55:20;;;;;;;0.00;0.00;;;;;;;;;;5021478;28;20032;-87
2022/05/19 01:57:52;;;;;;;0.10;0.10;;;;;;;;;;5021071;28;20056;-88
2022/05/19 02:00:23;;;;;;;0.08;0.08;;;;;;;;;;5021091;28;20086;-87
2022/05/19 02:02:58;;;;;;;0.00;0.00;;;;;;;;;;5021041;28;20053;-87
2022/05/19 02:05:31;;;;;;;0.10;0.10;;;;;;;;;;5020755;28;20041;-87
2022/05/19 02:07:59;;;;;;;0.00;0.00;;;;;;;;;;5021386;28;20048;-87
2022/05/19 02:10:27;;;;;;;0.00;0.00;;;;;;;;;;5021386;28;20490;-88
2022/05/19 02:12:55;;;;;;;0.08;0.08;;;;;;;;;;5021098;28;20044;-87
2022/05/19 02:15:23;;;;;;;0.10;0.10;;;;;;;;;;5021213;28;20047;-87
2022/05/19 02:17:51;;;;;;;0.10;0.10;;;;;;;;;;5021284;28;20107;-87
2022/05/19 02:20:19;;;;;;;0.15;0.15;;;;;;;;;;5021206;28;20047;-87
2022/05/19 02:22:45;;;;;;;0.00;0.00;;;;;;;;;;5021037;28;20037;-87
2022/05/19 02:25:15;;;;;;;0.10;0.10;;;;;;;;;;5021337;28;20143;-87
2022/05/19 02:27:44;;;;;;;0.00;0.00;;;;;;;;;;5020754;28;20076;-87
2022/05/19 02:30:12;;;;;;;0.00;0.00;;;;;;;;;;5020754;28;20099;-86
2022/05/19 02:32:38;;;;;;;0.00;0.00;;;;;;;;;;5020831;28;20036;-87
2022/05/19 02:35:05;;;;;;;0.10;0.10;;;;;;;;;;5020662;28;20072;-87
2022/05/19 02:37:32;;;;;;;0.00;0.00;;;;;;;;;;5004681;28;20452;-86
2022/05/19 02:40:01;;;;;;;0.03;0.03;;;;;;;;;;5005277;28;20047;-86
2022/05/19 02:42:27;;;;;;;0.00;0.00;;;;;;;;;;5020733;28;20049;-86
2022/05/19 02:44:53;;;;;;;1.73;0.90;;;;;;;;;;5020596;28;20051;-86
2022/05/19 02:47:19;;;;;;;0.10;0.10;;;;;;;;;;5020563;28;20041;-87
2022/05/19 02:49:45;;;;;;;0.10;0.10;;;;;;;;;;5020691;28;20037;-86
2022/05/19 02:52:11;;;;;;;0.00;0.00;;;;;;;;;;5019570;28;20033;-86
2022/05/19 02:54:37;;;;;;;0.00;0.00;;;;;;;;;;5037168;28;20124;-86
2022/05/19 02:57:04;;;;;;;0.10;0.10;;;;;;;;;;5020186;28;20175;-87
2022/05/19 02:59:30;;;;;;;0.10;0.10;;;;;;;;;;5020362;28;20087;-86
2022/05/19 03:01:57;;;;;;;0.00;0.00;;;;;;;;;;5020748;28;20110;-86
2022/05/19 03:04:23;;;;;;;0.03;0.03;;;;;;;;;;5004354;28;20461;-86
2022/05/19 03:06:49;;;;;;;0.10;0.10;;;;;;;;;;5020459;28;20045;-86
2022/05/19 03:09:15;;;;;;;0.10;0.10;;;;;;;;;;5020613;28;20037;-88
2022/05/19 03:11:41;;;;;;;0.10;0.10;;;;;;;;;;5019990;28;20033;-86
2022/05/19 03:14:07;;;;;;;0.08;0.08;;;;;;;;;;5020404;28;20033;-86
2022/05/19 03:16:33;;;;;;;0.10;0.10;;;;;;;;;;5036297;28;20060;-85
2022/05/19 03:18:59;;;;;;;0.10;0.10;;;;;;;;;;5019916;28;20040;-86
2022/05/19 03:21:25;;;;;;;0.00;0.00;;;;;;;;;;5020268;28;20640;-86
2022/05/19 03:23:51;;;;;;;0.80;0.70;;;;;;;;;;5020136;28;20406;-86
2022/05/19 03:26:17;;;;;;;0.10;0.10;;;;;;;;;;5019840;28;20037;-88
2022/05/19 03:28:43;;;;;;;0.10;0.10;;;;;;;;;;5019804;28;20048;-86
2022/05/19 03:31:09;;;;;;;0.10;0.10;;;;;;;;;;5020071;28;20041;-86
2022/05/19 03:33:36;;;;;;;0.10;0.10;;;;;;;;;;5003578;28;20124;-86
2022/05/19 03:36:03;;;;;;;0.10;0.10;;;;;;;;;;5019766;28;20417;-86
2022/05/19 03:38:29;;;;;;;0.00;0.00;;;;;;;;;;5019804;28;20051;-86
2022/05/19 03:40:55;;;;;;;0.03;0.03;;;;;;;;;;5020346;28;20044;-87
2022/05/19 03:43:23;;;;;;;0.20;0.20;;;;;;;;;;5019677;28;20567;-86
2022/05/19 03:45:49;;;;;;;0.10;0.10;;;;;;;;;;5019316;28;20041;-87
2022/05/19 03:48:15;;;;;;;0.10;0.10;;;;;;;;;;5020015;28;20039;-85
2022/05/19 03:50:45;;;;;;;0.00;0.00;;;;;;;;;;5019699;28;20500;-86
2022/05/19 03:53:11;;;;;;;0.10;0.10;;;;;;;;;;5019818;28;20059;-86
2022/05/19 03:55:37;;;;;;;0.10;0.10;;;;;;;;;;5020127;28;20044;-85
2022/05/19 03:58:04;;;;;;;0.00;0.00;;;;;;;;;;5003756;28;20510;-86
2022/05/19 04:00:32;;;;;;;0.03;0.03;;;;;;;;;;5003704;28;20087;-86
2022/05/19 04:03:00;;;;;;;0.10;0.10;;;;;;;;;;5029759;28;20041;-87
2022/05/19 04:05:26;;;;;;;0.10;0.10;;;;;;;;;;5038466;28;20174;-87
2022/05/19 04:07:52;;;;;;;0.10;0.10;;;;;;;;;;5039175;28;20178;-86
2022/05/19 04:10:18;;;;;;;0.00;0.00;;;;;;;;;;5038666;28;20036;-87
2022/05/19 04:12:45;;;;;;;0.00;0.00;;;;;;;;;;5038712;28;20037;-87
2022/05/19 04:15:12;;;;;;;0.10;0.10;;;;;;;;;;5038696;28;20037;-87
2022/05/19 04:17:38;;;;;;;0.00;0.00;;;;;;;;;;5039188;28;20090;-86
2022/05/19 04:20:05;;;;;;;0.00;0.00;;;;;;;;;;5039138;28;20455;-86
2022/05/19 04:22:31;;;;;;;0.10;0.10;;;;;;;;;;5039082;28;20041;-86
2022/05/19 04:25:00;;;;;;;0.10;0.10;;;;;;;;;;5038608;28;20044;-86
2022/05/19 04:27:29;;;;;;;0.10;0.10;;;;;;;;;;5055043;28;20044;-87
2022/05/19 04:29:56;;;;;;;0.00;0.00;;;;;;;;;;5038669;28;20120;-86
2022/05/19 04:32:22;;;;;;;0.00;0.00;;;;;;;;;;5055175;28;20039;-87
2022/05/19 04:34:48;;;;;;;0.10;0.10;;;;;;;;;;5038720;28;20044;-86
2022/05/19 04:37:14;;;;;;;0.00;0.00;;;;;;;;;;5038641;28;20135;-87
2022/05/19 04:39:40;;;;;;;0.10;0.10;;;;;;;;;;5038654;28;20428;-86
2022/05/19 04:42:07;;;;;;;0.00;0.00;;;;;;;;;;5038698;28;20114;-87
2022/05/19 04:44:33;;;;;;;0.10;0.10;;;;;;;;;;5055373;28;20548;-87
2022/05/19 04:46:59;;;;;;;0.00;0.00;;;;;;;;;;5038588;28;20084;-86
2022/05/19 04:49:25;;;;;;;0.05;0.05;;;;;;;;;;5038731;28;20378;-86
2022/05/19 04:51:51;;;;;;;0.00;0.00;;;;;;;;;;5038178;28;20047;-85
2022/05/19 04:54:17;;;;;;;0.00;0.00;;;;;;;;;;5038677;28;20040;-87
2022/05/19 04:56:43;;;;;;;0.00;0.00;;;;;;;;;;5038749;28;20405;-87
2022/05/19 04:59:16;;;;;;;0.08;0.08;;;;;;;;;;5038665;28;20043;-86
2022/05/19 05:01:42;;;;;;;0.10;0.10;;;;;;;;;;5038543;28;20494;-86
2022/05/19 05:04:08;;;;;;;0.00;0.00;;;;;;;;;;5038399;28;20048;-86
2022/05/19 05:06:34;;;;;;;0.00;0.00;;;;;;;;;;5037834;28;20123;-86
2022/05/19 05:09:01;;;;;;;0.10;0.10;;;;;;;;;;5038643;28;20091;-86
2022/05/19 05:11:27;;;;;;;0.03;0.03;;;;;;;;;;5038284;28;20119;-86
2022/05/19 05:13:53;;;;;;;0.00;0.00;;;;;;;;;;5038445;28;20442;-84
2022/05/19 05:16:20;;;;;;;0.10;0.10;;;;;;;;;;5040201;28;20045;-86
2022/05/19 05:18:46;;;;;;;0.10;0.10;;;;;;;;;;5058721;28;20052;-87
2022/05/19 05:21:13;;;;;;;0.10;0.10;;;;;;;;;;5042443;28;20041;-85
2022/05/19 05:23:40;;;;;;;0.10;0.10;;;;;;;;;;5058757;28;20119;-86
2022/05/19 05:26:06;;;;;;;0.10;0.10;;;;;;;;;;5058676;28;20044;-85
2022/05/19 05:28:33;;;;;;;0.00;0.00;;;;;;;;;;5042499;28;20033;-86
2022/05/19 05:30:59;;;;;;;0.10;0.10;;;;;;;;;;5042530;28;20037;-87
2022/05/19 05:33:25;;;;;;;0.03;0.03;;;;;;;;;;5025888;28;20128;-87
2022/05/19 05:35:51;;;;;;;0.32;0.32;;;;;;;;;;5041989;28;20067;-87
2022/05/19 05:38:17;;;;;;;0.05;0.05;;;;;;;;;;5023665;28;20033;-87
2022/05/19 05:40:44;;;;;;;0.00;0.00;;;;;;;;;;5058331;28;20041;-87
2022/05/19 05:43:11;;;;;;;0.00;0.00;;;;;;;;;;5041931;28;20561;-87
2022/05/19 05:45:40;;;;;;;0.00;0.00;;;;;;;;;;5040975;28;20497;-87
2022/05/19 05:48:07;;;;;;;0.10;0.10;;;;;;;;;;5041131;28;20037;-87
2022/05/19 05:50:33;;;;;;;0.10;0.10;;;;;;;;;;5058263;28;20061;-88
2022/05/19 05:52:59;;;;;;;0.00;0.00;;;;;;;;;;5041369;28;20036;-87
2022/05/19 05:55:25;;;;;;;0.00;0.00;;;;;;;;;;5041464;28;20036;-87
2022/05/19 05:57:51;;;;;;;0.00;0.00;;;;;;;;;;5041459;28;20043;-86
2022/05/19 06:00:17;;;;;;;0.03;0.03;;;;;;;;;;5041558;28;20033;-86
2022/05/19 06:02:43;;;;;;;0.10;0.10;;;;;;;;;;5040470;28;20052;-87
2022/05/19 06:05:10;;;;;;;0.10;0.10;;;;;;;;;;5040916;28;20033;-87
2022/05/19 06:07:37;;;;;;;0.10;0.10;;;;;;;;;;5040838;28;20119;-85
2022/05/19 06:10:03;;;;;;;0.00;0.00;;;;;;;;;;5040643;28;20044;-87
2022/05/19 06:12:29;;;;;;;0.10;0.10;;;;;;;;;;5057462;28;20127;-85
2022/05/19 06:14:56;;;;;;;0.10;0.10;;;;;;;;;;5040903;28;20476;-85
2022/05/19 06:17:23;;;;;;;0.10;0.10;;;;;;;;;;5040617;28;20036;-86
2022/05/19 06:19:49;;;;;;;0.00;0.00;;;;;;;;;;5057300;28;20044;-86
2022/05/19 06:22:15;;;;;;;0.05;0.05;;;;;;;;;;5040623;28;20040;-84
2022/05/19 06:24:41;;;;;;;0.30;0.30;;;;;;;;;;5040262;28;20120;-87
2022/05/19 06:27:07;;;;;;;0.10;0.10;;;;;;;;;;5040325;28;20465;-87
2022/05/19 06:29:33;;;;;;;0.00;0.00;;;;;;;;;;5040522;28;20075;-86
2022/05/19 06:31:59;;;;;;;0.08;0.08;;;;;;;;;;5057561;28;20068;-87
2022/05/19 06:34:25;;;;;;;0.00;0.00;;;;;;;;;;5040223;28;20037;-86
2022/05/19 06:36:51;;;;;;;0.30;0.30;;;;;;;;;;5040408;28;20037;-86
2022/05/19 06:39:19;;;;;;;0.10;0.10;;;;;;;;;;5040108;28;20449;-86
2022/05/19 06:42:01;;;;;;;0.00;0.00;;;;;;;;;;5040440;28;20048;-86
2022/05/19 06:44:37;;;;;;;0.10;0.10;;;;;;;;;;5036055;28;20036;-87
2022/05/19 06:47:06;;;;;;;0.10;0.10;;;;;;;;;;5040131;28;20089;-87
2022/05/19 06:49:31;;;;;;;0.00;0.00;;;;;;;;;;5039955;28;20063;-87
2022/05/19 06:51:57;;;;;;;0.00;0.00;;;;;;;;;;5040386;28;20069;-87
2022/05/19 06:54:24;;;;;;;0.10;0.10;;;;;;;;;;5040018;28;20037;-84
2022/05/19 06:56:50;;;;;;;0.10;0.10;;;;;;;;;;5039806;28;20409;-85
2022/05/19 06:59:17;;;;;;;0.10;0.10;;;;;;;;;;5039814;28;20048;-85
2022/05/19 07:01:45;;;;;;;0.10;0.10;;;;;;;;;;5039785;28;20083;-86
2022/05/19 07:04:12;;;;;;;0.00;0.00;;;;;;;;;;5039792;28;20040;-86
2022/05/19 07:06:38;;;;;;;0.10;0.10;;;;;;;;;;5039789;28;20424;-87
2022/05/19 07:09:04;;;;;;;0.00;0.00;;;;;;;;;;5040278;28;20036;-86
2022/05/19 07:11:30;;;;;;;0.10;0.10;;;;;;;;;;5040433;28;20036;-86
2022/05/19 07:14:04;;;;;;;0.00;0.00;;;;;;;;;;5040316;28;20044;-87
2022/05/19 07:16:31;;;;;;;0.00;0.00;;;;;;;;;;5040372;28;20032;-87
2022/05/19 07:21:42;;;;;;;;;;;;;;;;;;5056414;28;20482;-88
2022/05/19 07:24:19;;;;;;;0.00;0.00;;;;;;;;;;5034329;28;20289;-89
2022/05/19 07:26:46;;;;;;;0.03;0.03;;;;;;;;;;5038316;28;20094;-87
2022/05/19 07:29:12;;;;;;;0.00;0.00;;;;;;;;;;5039460;28;20068;-86
2022/05/19 07:31:39;;;;;;;0.05;0.05;;;;;;;;;;5039252;28;20094;-86
2022/05/19 07:34:06;;;;;;;0.08;0.08;;;;;;;;;;5023251;28;20039;-86
2022/05/19 07:36:35;;;;;;;0.00;0.00;;;;;;;;;;5026719;28;20482;-88
2022/05/19 07:39:01;;;;;;;0.13;0.13;;;;;;;;;;5042280;28;20048;-88
2022/05/19 07:41:28;;;;;;;0.00;0.00;;;;;;;;;;5042371;28;20124;-87
2022/05/19 07:43:55;;;;;;;0.10;0.10;;;;;;;;;;5041151;28;20037;-88
2022/05/19 07:46:21;;;;;;;0.10;0.10;;;;;;;;;;5040839;28;20039;-88
2022/05/19 07:48:47;;;;;;;0.00;0.00;;;;;;;;;;5057806;28;20040;-88
2022/05/19 07:51:13;;;;;;;0.10;0.10;;;;;;;;;;5037941;28;20079;-88
2022/05/19 07:53:39;;;;;;;0.10;0.10;;;;;;;;;;5036759;28;20033;-87
2022/05/19 07:56:05;;;;;;;0.00;0.00;;;;;;;;;;5038427;28;20588;-87
2022/05/19 07:58:31;;;;;;;0.05;0.05;;;;;;;;;;5053968;28;20406;-86
2022/05/19 08:00:59;;;;;;;0.00;0.00;;;;;;;;;;5038654;28;20059;-87
2022/05/19 08:03:25;;;;;;;0.00;0.00;;;;;;;;;;5038662;28;20111;-86
2022/05/19 08:05:52;;;;;;;0.03;0.03;;;;;;;;;;5038608;28;20398;-86
2022/05/19 08:08:18;;;;;;;0.00;0.00;;;;;;;;;;5038762;28;20548;-87
2022/05/19 08:10:44;;;;;;;0.00;0.00;;;;;;;;;;5038365;28;20448;-85
2022/05/19 08:15:55;;;;;;;0.00;0.00;;;;;;;;;;5038594;28;20132;-88
2022/05/19 08:18:25;;;;;;;0.10;0.10;;;;;;;;;;5022276;28;20083;-88
2022/05/19 08:21:01;;;;;;;0.00;0.00;;;;;;;;;;5038541;28;20047;-88
2022/05/19 08:23:28;;;;;;;0.10;0.10;;;;;;;;;;5038013;28;20127;-88
2022/05/19 08:25:54;;;;;;;0.10;0.10;;;;;;;;;;5041846;28;20573;-88
2022/05/19 08:28:21;;;;;;;0.00;0.00;;;;;;;;;;5040562;28;20051;-89
2022/05/19 08:30:49;;;;;;;0.05;0.05;;;;;;;;;;5039820;28;20036;-87
2022/05/19 08:33:16;;;;;;;0.00;0.00;;;;;;;;;;5023193;28;20072;-88
2022/05/19 08:35:43;;;;;;;0.00;0.00;;;;;;;;;;5028758;28;20035;-87
2022/05/19 08:38:09;;;;;;;0.00;0.00;;;;;;;;;;5035405;28;20068;-88
2022/05/19 08:40:44;;;;;;;0.00;0.00;;;;;;;;;;5035474;28;20502;-87
2022/05/19 08:43:11;;;;;;;0.00;0.00;;;;;;;;;;5033922;28;20125;-87
2022/05/19 08:45:42;;;;;;;0.00;0.00;;;;;;;;;;5050708;28;20048;-86
2022/05/19 08:48:20;;;;;;;0.10;0.10;;;;;;;;;;5029852;28;20178;-87
2022/05/19 08:50:49;;;;;;;0.10;0.10;;;;;;;;;;5040668;28;20090;-87
2022/05/19 08:53:15;;;;;;;0.00;0.00;;;;;;;;;;5043897;28;20045;-87
2022/05/19 08:55:43;;;;;;;0.10;0.10;;;;;;;;;;5043428;28;20041;-87
2022/05/19 08:58:22;;;;;;;0.00;0.00;;;;;;;;;;5042851;28;20043;-86
2022/05/19 09:00:54;;;;;;;0.10;0.10;;;;;;;;;;5042942;28;20040;-86
2022/05/19 09:03:24;;;;;;;0.10;0.10;;;;;;;;;;5030900;28;20049;-87
2022/05/19 09:06:00;;;;;;;0.05;0.05;;;;;;;;;;5034894;28;20040;-87
2022/05/19 09:08:32;;;;;;;0.00;0.00;;;;;;;;;;5039468;28;20102;-86
2022/05/19 09:11:12;;;;;;;0.17;0.17;;;;;;;;;;5042419;28;20048;-87
2022/05/19 09:13:56;;;;;;;0.10;0.10;;;;;;;;;;5042637;28;20048;-86
2022/05/19 09:16:24;;;;;;;0.08;0.08;;;;;;;;;;5042085;28;20090;-86
2022/05/19 09:18:52;;;;;;;0.08;0.08;;;;;;;;;;5042179;28;20037;-87
2022/05/19 09:21:18;;;;;;;0.10;0.10;;;;;;;;;;5037808;28;20044;-86
2022/05/19 09:23:44;;;;;;;0.10;0.10;;;;;;;;;;5038631;28;20044;-87
2022/05/19 09:26:10;;;;;;;0.10;0.10;;;;;;;;;;5037987;28;20411;-87
2022/05/19 09:28:36;;;;;;;0.30;0.28;;;;;;;;;;5042027;28;20044;-86
2022/05/19 09:31:02;;;;;;;0.03;0.03;;;;;;;;;;5058058;28;20036;-86
2022/05/19 09:33:41;;;;;;;0.10;0.10;;;;;;;;;;5031529;28;20413;-87
2022/05/19 09:36:11;;;;;;;0.00;0.00;;;;;;;;;;5054451;28;20055;-87
2022/05/19 09:38:57;;;;;;;0.00;0.00;;;;;;;;;;5034589;28;20041;-87
2022/05/19 09:41:26;;;;;;;3.40;1.23;;;;;;;;;;5030000;28;20103;-87
2022/05/19 09:43:54;;;;;;;0.10;0.10;;;;;;;;;;5041793;28;20048;-87
2022/05/19 09:46:20;;;;;;;0.00;0.00;;;;;;;;;;5042225;28;20037;-87
2022/05/19 09:48:51;;;;;;;0.10;0.10;;;;;;;;;;5041994;28;20115;-87
2022/05/19 09:51:19;;;;;;;0.10;0.10;;;;;;;;;;5037972;28;20032;-87
2022/05/19 09:53:56;;;;;;;0.10;0.10;;;;;;;;;;5037507;28;20119;-87
2022/05/19 09:56:23;;;;;;;0.00;0.00;;;;;;;;;;5041542;28;20036;-87
2022/05/19 09:58:51;;;;;;;0.00;0.00;;;;;;;;;;5041685;28;20036;-87
2022/05/19 10:01:40;;;;;;;0.00;0.00;;;;;;;;;;5037387;28;20044;-87
2022/05/19 10:04:15;;;;;;;0.03;0.03;;;;;;;;;;5040788;28;20071;-87
2022/05/19 10:06:51;;;;;;;0.00;0.00;;;;;;;;;;5041494;28;20047;-87
2022/05/19 10:09:19;;;;;;;0.13;0.13;;;;;;;;;;5037426;28;20115;-87
2022/05/19 10:11:55;;;;;;;0.00;0.00;;;;;;;;;;5041260;28;20449;-87
2022/05/19 10:14:30;;;;;;;0.10;0.10;;;;;;;;;;5041104;28;20029;-87
2022/05/19 10:16:56;;;;;;;0.00;0.00;;;;;;;;;;5040981;28;20041;-87
2022/05/19 10:19:35;;;;;;;0.10;0.10;;;;;;;;;;5040843;28;20080;-86
2022/05/19 10:22:01;;;;;;;0.00;0.00;;;;;;;;;;5041274;28;20123;-87
2022/05/19 10:24:33;;;;;;;0.00;0.00;;;;;;;;;;5041574;28;20040;-86
2022/05/19 10:33:01;;;;;;;0.00;0.00;;;;;;;;;;5054920;28;20123;-86
2022/05/19 10:35:31;;;;;;;0.00;0.00;;;;;;;;;;5040946;28;20036;-87
2022/05/19 10:38:03;;;;;;;0.10;0.10;;;;;;;;;;5042706;28;20409;-86
2022/05/19 10:40:38;;;;;;;0.00;0.00;;;;;;;;;;5058233;28;20489;-86
2022/05/19 10:43:21;;;;;;;0.10;0.10;;;;;;;;;;5040544;28;20098;-86
2022/05/19 10:45:48;;;;;;;0.00;0.00;;;;;;;;;;5041071;28;20086;-86
2022/05/19 10:48:34;;;;;;;0.00;0.00;;;;;;;;;;5040284;28;20064;-84
2022/05/19 10:51:12;;;;;;;0.10;0.10;;;;;;;;;;5038587;28;20060;-86
2022/05/19 10:53:58;;;;;;;0.00;0.00;;;;;;;;;;5040869;28;20036;-85
2022/05/19 10:56:34;;;;;;;0.00;0.00;;;;;;;;;;5033902;28;20040;-86
2022/05/19 10:59:00;;;;;;;0.00;0.00;;;;;;;;;;5034084;28;20033;-87
2022/05/19 11:01:35;;;;;;;0.10;0.10;;;;;;;;;;5037094;28;20043;-88
2022/05/19 11:04:05;;;;;;;0.00;0.00;;;;;;;;;;5056722;28;20036;-87
2022/05/19 11:06:36;;;;;;;0.00;0.00;;;;;;;;;;5039833;28;20047;-85
2022/05/19 11:09:05;;;;;;;0.00;0.00;;;;;;;;;;5054545;28;20036;-85
2022/05/19 11:11:52;;;;;;;0.10;0.10;;;;;;;;;;5040486;28;20420;-86
2022/05/19 11:14:43;;;;;;;0.00;0.00;;;;;;;;;;5032434;28;20048;-90
2022/05/19 11:17:09;;;;;;;0.05;0.05;;;;;;;;;;5042003;28;20127;-86
2022/05/19 11:19:41;;;;;;;0.00;0.00;;;;;;;;;;5041763;28;20133;-89
2022/05/19 11:22:10;;;;;;;0.30;0.30;;;;;;;;;;5040036;28;20417;-89
2022/05/19 11:27:38;;;;;;;0.00;0.00;;;;;;;;;;5057402;28;20045;-89
2022/05/19 11:30:18;;;;;;;0.00;0.00;;;;;;;;;;5023676;28;20075;-90
2022/05/19 11:32:45;;;;;;;0.00;0.00;;;;;;;;;;5040489;28;20063;-91
2022/05/19 11:35:18;;;;;;;0.10;0.10;;;;;;;;;;5039363;28;20047;-88
2022/05/19 11:37:53;;;;;;;0.00;0.00;;;;;;;;;;5039796;28;20127;-90
2022/05/19 11:40:39;;;;;;;0.10;0.10;;;;;;;;;;5039348;28;20037;-91
2022/05/19 11:43:06;;;;;;;0.00;0.00;;;;;;;;;;5039225;28;20047;-87
2022/05/19 11:45:49;;;;;;;0.05;0.05;;;;;;;;;;5055680;28;20090;-84
2022/05/19 11:57:21;;;;;;;0.00;0.00;;;;;;;;;;5041187;28;20085;-89
2022/05/19 11:59:50;;;;;;;0.10;0.10;;;;;;;;;;5040084;28;20398;-91
2022/05/19 12:02:19;;;;;;;0.00;0.00;;;;;;;;;;5040463;28;20482;-86
2022/05/19 12:04:48;;;;;;;0.00;0.00;;;;;;;;;;5041194;28;20036;-86
2022/05/19 12:07:35;;;;;;;0.00;0.00;;;;;;;;;;5039638;28;20123;-89
2022/05/19 12:10:01;;;;;;;0.00;0.00;;;;;;;;;;5039694;28;20123;-85
2022/05/19 12:12:31;;;;;;;0.00;0.00;;;;;;;;;;5041665;28;20041;-86
2022/05/19 12:15:18;;;;;;;0.10;0.10;;;;;;;;;;5041157;28;20454;-86
2022/05/19 12:17:52;;;;;;;0.05;0.05;;;;;;;;;;5032509;28;20398;-85
2022/05/19 12:20:34;;;;;;;0.10;0.10;;;;;;;;;;5039510;28;20036;-86
2022/05/19 12:23:15;;;;;;;0.10;0.10;;;;;;;;;;5039889;28;20041;-86
2022/05/19 12:25:43;;;;;;;0.00;0.00;;;;;;;;;;5036071;28;20316;-87
2022/05/19 12:28:18;;;;;;;0.00;0.00;;;;;;;;;;5038885;28;20039;-87
2022/05/19 12:33:40;;;;;;;;;;;;;;;;;;5058088;28;20068;-87
2022/05/19 12:36:08;;;;;;;0.00;0.00;;;;;;;;;;5039418;28;19916;-87
2022/05/19 12:38:36;;;;;;;0.10;0.10;;;;;;;;;;5038953;28;20033;-87
2022/05/19 12:41:09;;;;;;;0.10;0.10;;;;;;;;;;5039105;28;20043;-87
2022/05/19 12:43:38;;;;;;;0.00;0.00;;;;;;;;;;5039475;28;20044;-87
2022/05/19 12:46:06;;;;;;;0.00;0.00;;;;;;;;;;5042208;28;20024;-89
2022/05/19 12:48:32;;;;;;;0.00;0.00;;;;;;;;;;5044313;28;20760;-89
2022/05/19 12:51:13;;;;;;;0.10;0.10;;;;;;;;;;5038648;28;20044;-87
2022/05/19 12:53:51;;;;;;;0.10;0.10;;;;;;;;;;5044465;28;20070;-89
2022/05/19 12:56:36;;;;;;;0.00;0.00;;;;;;;;;;5042886;28;20110;-89
2022/05/19 12:59:05;;;;;;;0.00;0.00;;;;;;;;;;5044448;28;20037;-89
2022/05/19 13:01:36;;;;;;;0.00;0.00;;;;;;;;;;5042377;28;20132;-88
2022/05/19 13:04:14;;;;;;;0.00;0.00;;;;;;;;;;5042844;28;20063;-88
2022/05/19 13:06:49;;;;;;;0.00;0.00;;;;;;;;;;5031827;28;20039;-89
2022/05/19 13:09:17;;;;;;;0.10;0.10;;;;;;;;;;5044084;28;20123;-89
2022/05/19 13:11:47;;;;;;;0.10;0.10;;;;;;;;;;5044639;28;20063;-90
2022/05/19 13:14:15;;;;;;;0.10;0.10;;;;;;;;;;5011744;28;20029;-91
2022/05/19 13:16:51;;;;;;;0.10;0.10;;;;;;;;;;5039524;28;20091;-90
2022/05/19 13:19:31;;;;;;;0.10;0.10;;;;;;;;;;5046185;28;20123;-90
2022/05/19 13:22:04;;;;;;;0.00;0.00;;;;;;;;;;5047127;28;20048;-91
2022/05/19 13:24:34;;;;;;;0.00;0.00;;;;;;;;;;5046395;28;20066;-92
2022/05/19 13:32:36;;;;;;;0.00;0.00;;;;;;;;;;5062047;28;20037;-91
2022/05/19 13:35:11;;;;;;;0.03;0.03;;;;;;;;;;5059443;28;20037;-91
2022/05/19 13:37:41;;;;;;;0.45;0.45;;;;;;;;;;5047870;28;20040;-90
2022/05/19 13:40:15;;;;;;;3.03;2.17;;;;;;;;;;5042008;28;20128;-91
2022/05/19 13:42:52;;;;;;;0.05;0.05;;;;;;;;;;5046437;28;20044;-91
2022/05/19 13:45:19;;;;;;;1.38;1.27;;;;;;;;;;5049671;28;20040;-91
2022/05/19 13:47:45;;;;;;;0.15;0.15;;;;;;;;;;5049891;28;20048;-92
2022/05/19 13:50:16;;;;;;;1.55;1.45;;;;;;;;;;5050046;28;20040;-91
2022/05/19 13:52:44;;;;;;;0.10;0.10;;;;;;;;;;5060524;28;20131;-90
2022/05/19 13:55:28;;;;;;;0.55;0.55;;;;;;;;;;5044372;28;20608;-94
2022/05/19 13:57:54;;;;;;;1.83;1.73;;;;;;;;;;5047090;28;20074;-92
2022/05/19 14:00:22;;;;;;;0.85;0.85;;;;;;;;;;5048184;28;20043;-93
2022/05/19 14:02:48;;;;;;;0.10;0.10;;;;;;;;;;5048872;28;20047;-90
2022/05/19 14:05:28;;;;;;;0.75;0.75;;;;;;;;;;5048272;28;20094;-92
2022/05/19 14:07:57;;;;;;;0.00;0.00;;;;;;;;;;5048667;28;20040;-92
2022/05/19 14:10:25;;;;;;;0.10;0.10;;;;;;;;;;5041078;28;20033;-91
2022/05/19 14:12:57;;;;;;;0.00;0.00;;;;;;;;;;5045155;28;20494;-93
2022/05/19 14:15:44;;;;;;;0.00;0.00;;;;;;;;;;5034379;28;20037;-91
2022/05/19 14:18:12;;;;;;;0.00;0.00;;;;;;;;;;5029538;28;20043;-91
2022/05/19 14:20:49;;;;;;;0.10;0.10;;;;;;;;;;5046182;28;20044;-92
2022/05/19 14:23:34;;;;;;;0.10;0.10;;;;;;;;;;5042630;28;20032;-92
2022/05/19 14:26:01;;;;;;;0.00;0.00;;;;;;;;;;5045803;28;20036;-92
2022/05/19 14:28:39;;;;;;;0.03;0.03;;;;;;;;;;5057986;28;20037;-92
2022/05/19 14:31:10;;;;;;;0.20;0.20;;;;;;;;;;5071099;28;20036;-91
2022/05/19 14:33:41;;;;;;;0.10;0.10;;;;;;;;;;5040981;28;20037;-92
2022/05/19 14:36:11;;;;;;;0.00;0.00;;;;;;;;;;5034187;28;20032;-92
2022/05/19 14:38:46;;;;;;;0.10;0.10;;;;;;;;;;5049970;28;20044;-92
2022/05/19 14:44:04;;;;;;;0.00;0.00;;;;;;;;;;5067741;28;20064;-92
2022/05/19 14:46:30;;;;;;;0.10;0.10;;;;;;;;;;5061950;28;20044;-90
2022/05/19 14:49:05;;;;;;;0.00;0.00;;;;;;;;;;5051449;28;20443;-92
2022/05/19 14:51:35;;;;;;;0.10;0.10;;;;;;;;;;5043769;28;20036;-92
2022/05/19 14:54:01;;;;;;;0.00;0.00;;;;;;;;;;5047287;28;20033;-92
2022/05/19 14:56:40;;;;;;;0.00;0.00;;;;;;;;;;5034290;28;20037;-92
2022/05/19 14:59:09;;;;;;;0.10;0.10;;;;;;;;;;5043713;28;20051;-93
2022/05/19 15:01:35;;;;;;;0.10;0.10;;;;;;;;;;5054021;28;20047;-93
2022/05/19 15:04:01;;;;;;;0.03;0.03;;;;;;;;;;5051540;28;20083;-92
2022/05/19 15:06:27;;;;;;;0.05;0.05;;;;;;;;;;5044094;28;20041;-93
2022/05/19 15:08:54;;;;;;;0.00;0.00;;;;;;;;;;5050211;28;20039;-93
2022/05/19 15:11:21;;;;;;;0.00;0.00;;;;;;;;;;5059050;28;20040;-92
2022/05/19 15:13:47;;;;;;;0.00;0.00;;;;;;;;;;5055208;28;20047;-92
2022/05/19 15:16:13;;;;;;;0.00;0.00;;;;;;;;;;5047182;28;20039;-93
2022/05/19 15:18:40;;;;;;;0.10;0.10;;;;;;;;;;5048491;28;20041;-93
2022/05/19 15:21:06;;;;;;;0.03;0.03;;;;;;;;;;5057045;28;20040;-93
2022/05/19 15:23:33;;;;;;;0.10;0.10;;;;;;;;;;5050910;28;20108;-91
2022/05/19 15:25:59;;;;;;;0.10;0.10;;;;;;;;;;5050441;28;20035;-92
2022/05/19 15:28:26;;;;;;;0.00;0.00;;;;;;;;;;5050520;28;20041;-92
2022/05/19 15:30:53;;;;;;;0.10;0.10;;;;;;;;;;5051669;28;20040;-92
2022/05/19 15:33:19;;;;;;;0.00;0.00;;;;;;;;;;5052719;28;20059;-91